sensor_id;sensor_type;location;lat;lon;timestamp;pressure;altitude;pressure_sealevel;temperature;humidity
55217;BME280;41086;46.736;15.666;2023-05-19T00:00:57;99096.44;;;11.70;100.00
55217;BME280;41086;46.736;15.666;2023-05-19T00:03:26;99092.16;;;11.67;100.00
55217;BME280;41086;46.736;15.666;2023-05-19T00:05:52;99093.09;;;11.66;100.00
55217;BME280;41086;46.736;15.666;2023-05-19T00:08:21;99086.19;;;11.64;100.00
55217;BME280;41086;46.736;15.666;2023-05-19T00:10:49;99088.09;;;11.62;100.00
55217;BME280;41086;46.736;15.666;2023-05-19T00:13:16;99076.81;;;11.58;100.00
55217;BME280;41086;46.736;15.666;2023-05-19T00:15:43;99076.91;;;11.57;100.00
55217;BME280;41086;46.736;15.666;2023-05-19T00:18:09;99084.13;;;11.54;100.00
55217;BME280;41086;46.736;15.666;2023-05-19T00:20:39;99079.66;;;11.55;100.00
55217;BME280;41086;46.736;15.666;2023-05-19T00:23:07;99075.50;;;11.51;100.00
55217;BME280;41086;46.736;15.666;2023-05-19T00:25:33;99075.50;;;11.51;100.00
55217;BME280;41086;46.736;15.666;2023-05-19T00:28:00;99078.25;;;11.49;100.00
55217;BME280;41086;46.736;15.666;2023-05-19T00:30:29;99076.53;;;11.48;100.00
55217;BME280;41086;46.736;15.666;2023-05-19T00:32:56;99081.09;;;11.46;100.00
55217;BME280;41086;46.736;15.666;2023-05-19T00:35:23;99082.13;;;11.44;100.00
55217;BME280;41086;46.736;15.666;2023-05-19T00:37:50;99086.47;;;11.45;100.00
55217;BME280;41086;46.736;15.666;2023-05-19T00:40:17;99078.53;;;11.45;100.00
55217;BME280;41086;46.736;15.666;2023-05-19T00:42:44;99082.97;;;11.44;100.00
55217;BME280;41086;46.736;15.666;2023-05-19T00:45:11;99080.53;;;11.41;100.00
55217;BME280;41086;46.736;15.666;2023-05-19T00:47:38;99074.25;;;11.42;100.00
55217;BME280;41086;46.736;15.666;2023-05-19T00:50:05;99082.03;;;11.45;100.00
55217;BME280;41086;46.736;15.666;2023-05-19T00:52:32;99078.44;;;11.46;100.00
55217;BME280;41086;46.736;15.666;2023-05-19T00:54:59;99073.22;;;11.45;100.00
55217;BME280;41086;46.736;15.666;2023-05-19T00:57:26;99077.47;;;11.47;100.00
55217;BME280;41086;46.736;15.666;2023-05-19T00:59:53;99074.81;;;11.47;100.00
55217;BME280;41086;46.736;15.666;2023-05-19T01:02:20;99079.19;;;11.48;100.00
55217;BME280;41086;46.736;15.666;2023-05-19T01:04:48;99074.75;;;11.49;100.00
55217;BME280;41086;46.736;15.666;2023-05-19T01:07:16;99073.97;;;11.47;100.00
55217;BME280;41086;46.736;15.666;2023-05-19T01:09:44;56955.81;;;-143.57;100.00
55217;BME280;41086;46.736;15.666;2023-05-19T01:12:12;56955.81;;;-143.57;100.00
55217;BME280;41086;46.736;15.666;2023-05-19T01:14:39;56955.81;;;-143.57;100.00
55217;BME280;41086;46.736;15.666;2023-05-19T01:17:18;56955.81;;;-143.57;100.00
55217;BME280;41086;46.736;15.666;2023-05-19T01:19:54;56955.81;;;-143.57;100.00
55217;BME280;41086;46.736;15.666;2023-05-19T01:30:43;56955.81;;;-143.57;100.00
55217;BME280;41086;46.736;15.666;2023-05-19T01:33:12;56955.81;;;-143.57;100.00
55217;BME280;41086;46.736;15.666;2023-05-19T01:35:41;56955.81;;;-143.57;100.00
55217;BME280;41086;46.736;15.666;2023-05-19T01:38:09;56955.81;;;-143.57;100.00
55217;BME280;41086;46.736;15.666;2023-05-19T01:40:40;56955.81;;;-143.57;100.00
55217;BME280;41086;46.736;15.666;2023-05-19T01:43:10;56955.81;;;-143.57;100.00
55217;BME280;41086;46.736;15.666;2023-05-19T01:45:39;56955.81;;;-143.57;100.00
55217;BME280;41086;46.736;15.666;2023-05-19T01:48:06;56955.81;;;-143.57;100.00
55217;BME280;41086;46.736;15.666;2023-05-19T01:50:38;56955.81;;;-143.57;100.00
55217;BME280;41086;46.736;15.666;2023-05-19T01:53:05;56955.81;;;-143.57;100.00
55217;BME280;41086;46.736;15.666;2023-05-19T01:55:42;56955.81;;;-143.57;100.00
55217;BME280;41086;46.736;15.666;2023-05-19T01:58:45;56955.81;;;-143.57;100.00
55217;BME280;41086;46.736;15.666;2023-05-19T02:04:18;56955.81;;;-143.57;100.00
55217;BME280;41086;46.736;15.666;2023-05-19T02:07:08;56955.81;;;-143.57;100.00
55217;BME280;41086;46.736;15.666;2023-05-19T02:10:04;56955.81;;;-143.57;100.00
55217;BME280;41086;46.736;15.666;2023-05-19T02:12:33;56955.81;;;-143.57;100.00
55217;BME280;41086;46.736;15.666;2023-05-19T02:15:16;56955.81;;;-143.57;100.00
55217;BME280;41086;46.736;15.666;2023-05-19T02:17:44;56955.81;;;-143.57;100.00
55217;BME280;41086;46.736;15.666;2023-05-19T02:20:14;56955.81;;;-143.57;100.00
55217;BME280;41086;46.736;15.666;2023-05-19T02:22:42;56955.81;;;-143.57;100.00
55217;BME280;41086;46.736;15.666;2023-05-19T02:25:09;56955.81;;;-143.57;100.00
55217;BME280;41086;46.736;15.666;2023-05-19T02:27:37;56955.81;;;-143.57;100.00
55217;BME280;41086;46.736;15.666;2023-05-19T02:30:04;56955.81;;;-143.57;100.00
55217;BME280;41086;46.736;15.666;2023-05-19T02:32:32;56955.81;;;-143.57;100.00
55217;BME280;41086;46.736;15.666;2023-05-19T02:35:00;56955.81;;;-143.57;100.00
55217;BME280;41086;46.736;15.666;2023-05-19T02:37:27;56955.81;;;-143.57;100.00
55217;BME280;41086;46.736;15.666;2023-05-19T02:39:56;56955.81;;;-143.57;100.00
55217;BME280;41086;46.736;15.666;2023-05-19T02:42:23;56955.81;;;-143.57;100.00
55217;BME280;41086;46.736;15.666;2023-05-19T02:44:52;56955.81;;;-143.57;100.00
55217;BME280;41086;46.736;15.666;2023-05-19T02:47:19;56955.81;;;-143.57;100.00
55217;BME280;41086;46.736;15.666;2023-05-19T02:49:46;56955.81;;;-143.57;100.00
55217;BME280;41086;46.736;15.666;2023-05-19T02:52:14;56955.81;;;-143.57;100.00
55217;BME280;41086;46.736;15.666;2023-05-19T02:54:41;56955.81;;;-143.57;100.00
55217;BME280;41086;46.736;15.666;2023-05-19T02:57:08;56955.81;;;-143.57;100.00
55217;BME280;41086;46.736;15.666;2023-05-19T02:59:34;56955.81;;;-143.57;100.00
55217;BME280;41086;46.736;15.666;2023-05-19T03:02:02;56955.81;;;-143.57;100.00
55217;BME280;41086;46.736;15.666;2023-05-19T03:04:29;56955.81;;;-143.57;100.00
55217;BME280;41086;46.736;15.666;2023-05-19T03:06:56;56955.81;;;-143.57;100.00
55217;BME280;41086;46.736;15.666;2023-05-19T03:09:23;56955.81;;;-143.57;100.00
55217;BME280;41086;46.736;15.666;2023-05-19T03:11:50;56955.81;;;-143.57;100.00
55217;BME280;41086;46.736;15.666;2023-05-19T03:14:17;56955.81;;;-143.57;100.00
55217;BME280;41086;46.736;15.666;2023-05-19T03:16:44;56955.81;;;-143.57;100.00
55217;BME280;41086;46.736;15.666;2023-05-19T03:19:11;56955.81;;;-143.57;100.00
55217;BME280;41086;46.736;15.666;2023-05-19T03:21:38;56955.81;;;-143.57;100.00
55217;BME280;41086;46.736;15.666;2023-05-19T03:24:05;56955.81;;;-143.57;100.00
55217;BME280;41086;46.736;15.666;2023-05-19T03:26:33;56955.81;;;-143.57;100.00
55217;BME280;41086;46.736;15.666;2023-05-19T03:29:00;56955.81;;;-143.57;100.00
55217;BME280;41086;46.736;15.666;2023-05-19T03:31:29;56955.81;;;-143.57;100.00
55217;BME280;41086;46.736;15.666;2023-05-19T03:33:57;56955.81;;;-143.57;100.00
55217;BME280;41086;46.736;15.666;2023-05-19T03:36:23;56955.81;;;-143.57;100.00
55217;BME280;41086;46.736;15.666;2023-05-19T03:38:51;56955.81;;;-143.57;100.00
55217;BME280;41086;46.736;15.666;2023-05-19T03:41:18;56955.81;;;-143.57;100.00
55217;BME280;41086;46.736;15.666;2023-05-19T03:43:45;56955.81;;;-143.57;100.00
55217;BME280;41086;46.736;15.666;2023-05-19T03:46:13;56955.81;;;-143.57;100.00
55217;BME280;41086;46.736;15.666;2023-05-19T03:48:54;56955.81;;;-143.57;100.00
55217;BME280;41086;46.736;15.666;2023-05-19T03:51:27;56955.81;;;-143.57;100.00
55217;BME280;41086;46.736;15.666;2023-05-19T03:54:02;56955.81;;;-143.57;100.00
55217;BME280;41086;46.736;15.666;2023-05-19T03:56:30;56955.81;;;-143.57;100.00
55217;BME280;41086;46.736;15.666;2023-05-19T03:58:58;56955.81;;;-143.57;100.00
55217;BME280;41086;46.736;15.666;2023-05-19T04:01:26;56955.81;;;-143.57;100.00
55217;BME280;41086;46.736;15.666;2023-05-19T04:03:54;56955.81;;;-143.57;100.00
55217;BME280;41086;46.736;15.666;2023-05-19T04:06:23;56955.81;;;-143.57;100.00
55217;BME280;41086;46.736;15.666;2023-05-19T04:08:50;56955.81;;;-143.57;100.00
55217;BME280;41086;46.736;15.666;2023-05-19T04:11:17;56955.81;;;-143.57;100.00
55217;BME280;41086;46.736;15.666;2023-05-19T04:13:45;56955.81;;;-143.57;100.00
55217;BME280;41086;46.736;15.666;2023-05-19T04:16:12;56955.81;;;-143.57;100.00
55217;BME280;41086;46.736;15.666;2023-05-19T04:18:40;56955.81;;;-143.57;100.00
55217;BME280;41086;46.736;15.666;2023-05-19T04:21:07;56955.81;;;-143.57;100.00
55217;BME280;41086;46.736;15.666;2023-05-19T04:23:34;56955.81;;;-143.57;100.00
55217;BME280;41086;46.736;15.666;2023-05-19T04:26:01;56955.81;;;-143.57;100.00
55217;BME280;41086;46.736;15.666;2023-05-19T04:28:29;56955.81;;;-143.57;100.00
55217;BME280;41086;46.736;15.666;2023-05-19T04:30:56;56955.81;;;-143.57;100.00
55217;BME280;41086;46.736;15.666;2023-05-19T04:33:26;56955.81;;;-143.57;100.00
55217;BME280;41086;46.736;15.666;2023-05-19T04:35:55;56955.81;;;-143.57;100.00
55217;BME280;41086;46.736;15.666;2023-05-19T04:38:22;56955.81;;;-143.57;100.00
55217;BME280;41086;46.736;15.666;2023-05-19T04:40:49;56955.81;;;-143.57;100.00
55217;BME280;41086;46.736;15.666;2023-05-19T04:43:18;56955.81;;;-143.57;100.00
55217;BME280;41086;46.736;15.666;2023-05-19T04:45:45;56955.81;;;-143.57;100.00
55217;BME280;41086;46.736;15.666;2023-05-19T04:48:14;56955.81;;;-143.57;100.00
55217;BME280;41086;46.736;15.666;2023-05-19T04:50:41;56955.81;;;-143.57;100.00
55217;BME280;41086;46.736;15.666;2023-05-19T04:53:08;56955.81;;;-143.57;100.00
55217;BME280;41086;46.736;15.666;2023-05-19T04:55:37;56955.81;;;-143.57;100.00
55217;BME280;41086;46.736;15.666;2023-05-19T04:58:05;56955.81;;;-143.57;100.00
55217;BME280;41086;46.736;15.666;2023-05-19T05:00:32;56955.81;;;-143.57;100.00
55217;BME280;41086;46.736;15.666;2023-05-19T05:03:04;56955.81;;;-143.57;100.00
55217;BME280;41086;46.736;15.666;2023-05-19T05:05:33;56955.81;;;-143.57;100.00
55217;BME280;41086;46.736;15.666;2023-05-19T05:08:00;56955.81;;;-143.57;100.00
55217;BME280;41086;46.736;15.666;2023-05-19T05:10:32;56955.81;;;-143.57;100.00
55217;BME280;41086;46.736;15.666;2023-05-19T05:13:00;56955.81;;;-143.57;100.00
55217;BME280;41086;46.736;15.666;2023-05-19T05:15:28;56955.81;;;-143.57;100.00
55217;BME280;41086;46.736;15.666;2023-05-19T05:17:58;56955.81;;;-143.57;100.00
55217;BME280;41086;46.736;15.666;2023-05-19T05:20:26;56955.81;;;-143.57;100.00
55217;BME280;41086;46.736;15.666;2023-05-19T05:22:54;56955.81;;;-143.57;100.00
55217;BME280;41086;46.736;15.666;2023-05-19T05:25:22;56955.81;;;-143.57;100.00
55217;BME280;41086;46.736;15.666;2023-05-19T05:27:49;56955.81;;;-143.57;100.00
55217;BME280;41086;46.736;15.666;2023-05-19T05:30:17;56955.81;;;-143.57;100.00
55217;BME280;41086;46.736;15.666;2023-05-19T05:32:44;56955.81;;;-143.57;100.00
55217;BME280;41086;46.736;15.666;2023-05-19T05:35:26;56955.81;;;-143.57;100.00
55217;BME280;41086;46.736;15.666;2023-05-19T05:37:53;56955.81;;;-143.57;100.00
55217;BME280;41086;46.736;15.666;2023-05-19T05:40:20;56955.81;;;-143.57;100.00
55217;BME280;41086;46.736;15.666;2023-05-19T05:42:48;56955.81;;;-143.57;100.00
55217;BME280;41086;46.736;15.666;2023-05-19T05:45:18;56955.81;;;-143.57;100.00
55217;BME280;41086;46.736;15.666;2023-05-19T05:47:45;56955.81;;;-143.57;100.00
55217;BME280;41086;46.736;15.666;2023-05-19T05:50:13;56955.81;;;-143.57;100.00
55217;BME280;41086;46.736;15.666;2023-05-19T05:52:44;56955.81;;;-143.57;100.00
55217;BME280;41086;46.736;15.666;2023-05-19T05:55:13;56955.81;;;-143.57;100.00
55217;BME280;41086;46.736;15.666;2023-05-19T05:57:40;56955.81;;;-143.57;100.00
55217;BME280;41086;46.736;15.666;2023-05-19T06:00:08;56955.81;;;-143.57;100.00
55217;BME280;41086;46.736;15.666;2023-05-19T06:02:43;56955.81;;;-143.57;100.00
55217;BME280;41086;46.736;15.666;2023-05-19T06:05:10;56955.81;;;-143.57;100.00
55217;BME280;41086;46.736;15.666;2023-05-19T06:07:41;56955.81;;;-143.57;100.00
55217;BME280;41086;46.736;15.666;2023-05-19T06:10:10;56955.81;;;-143.57;100.00
55217;BME280;41086;46.736;15.666;2023-05-19T06:12:37;56955.81;;;-143.57;100.00
55217;BME280;41086;46.736;15.666;2023-05-19T06:15:09;56955.81;;;-143.57;100.00
55217;BME280;41086;46.736;15.666;2023-05-19T06:17:54;56955.81;;;-143.57;100.00
55217;BME280;41086;46.736;15.666;2023-05-19T06:20:21;56955.81;;;-143.57;100.00
55217;BME280;41086;46.736;15.666;2023-05-19T06:22:49;56955.81;;;-143.57;100.00
55217;BME280;41086;46.736;15.666;2023-05-19T06:25:18;56955.81;;;-143.57;100.00
55217;BME280;41086;46.736;15.666;2023-05-19T06:27:46;56955.81;;;-143.57;100.00
55217;BME280;41086;46.736;15.666;2023-05-19T06:30:14;56955.81;;;-143.57;100.00
55217;BME280;41086;46.736;15.666;2023-05-19T06:33:00;56955.81;;;-143.57;100.00
55217;BME280;41086;46.736;15.666;2023-05-19T06:35:27;56955.81;;;-143.57;100.00
55217;BME280;41086;46.736;15.666;2023-05-19T06:37:54;56955.81;;;-143.57;100.00
55217;BME280;41086;46.736;15.666;2023-05-19T06:40:22;56955.81;;;-143.57;100.00
55217;BME280;41086;46.736;15.666;2023-05-19T06:42:49;56955.81;;;-143.57;100.00
55217;BME280;41086;46.736;15.666;2023-05-19T06:45:34;56955.81;;;-143.57;100.00
55217;BME280;41086;46.736;15.666;2023-05-19T06:48:03;56955.81;;;-143.57;100.00
55217;BME280;41086;46.736;15.666;2023-05-19T06:50:30;56955.81;;;-143.57;100.00
55217;BME280;41086;46.736;15.666;2023-05-19T06:52:57;56955.81;;;-143.57;100.00
55217;BME280;41086;46.736;15.666;2023-05-19T06:55:24;56955.81;;;-143.57;100.00
55217;BME280;41086;46.736;15.666;2023-05-19T06:57:51;56955.81;;;-143.57;100.00
55217;BME280;41086;46.736;15.666;2023-05-19T07:00:18;56955.81;;;-143.57;100.00
55217;BME280;41086;46.736;15.666;2023-05-19T07:02:50;56955.81;;;-143.57;100.00
55217;BME280;41086;46.736;15.666;2023-05-19T07:05:18;56955.81;;;-143.57;100.00
55217;BME280;41086;46.736;15.666;2023-05-19T07:07:49;56955.81;;;-143.57;100.00
55217;BME280;41086;46.736;15.666;2023-05-19T07:10:20;56955.81;;;-143.57;100.00
55217;BME280;41086;46.736;15.666;2023-05-19T07:12:49;56955.81;;;-143.57;100.00
55217;BME280;41086;46.736;15.666;2023-05-19T07:15:17;56955.81;;;-143.57;100.00
55217;BME280;41086;46.736;15.666;2023-05-19T07:17:44;56955.81;;;-143.57;100.00
55217;BME280;41086;46.736;15.666;2023-05-19T07:20:11;56955.81;;;-143.57;100.00
55217;BME280;41086;46.736;15.666;2023-05-19T07:22:39;56955.81;;;-143.57;100.00
55217;BME280;41086;46.736;15.666;2023-05-19T07:25:07;56955.81;;;-143.57;100.00
55217;BME280;41086;46.736;15.666;2023-05-19T07:27:34;56955.81;;;-143.57;100.00
55217;BME280;41086;46.736;15.666;2023-05-19T07:30:02;56955.81;;;-143.57;100.00
55217;BME280;41086;46.736;15.666;2023-05-19T07:32:29;56955.81;;;-143.57;100.00
55217;BME280;41086;46.736;15.666;2023-05-19T07:34:56;56955.81;;;-143.57;100.00
55217;BME280;41086;46.736;15.666;2023-05-19T07:37:24;56955.81;;;-143.57;100.00
55217;BME280;41086;46.736;15.666;2023-05-19T07:39:52;56955.81;;;-143.57;100.00
55217;BME280;41086;46.736;15.666;2023-05-19T07:42:19;56955.81;;;-143.57;100.00
55217;BME280;41086;46.736;15.666;2023-05-19T07:44:46;56955.81;;;-143.57;100.00
55217;BME280;41086;46.736;15.666;2023-05-19T07:47:12;56955.81;;;-143.57;100.00
55217;BME280;41086;46.736;15.666;2023-05-19T07:49:39;56955.81;;;-143.57;100.00
55217;BME280;41086;46.736;15.666;2023-05-19T07:52:06;56955.81;;;-143.57;100.00
55217;BME280;41086;46.736;15.666;2023-05-19T07:54:33;56955.81;;;-143.57;100.00
55217;BME280;41086;46.736;15.666;2023-05-19T07:57:00;56955.81;;;-143.57;100.00
55217;BME280;41086;46.736;15.666;2023-05-19T07:59:27;56955.81;;;-143.57;100.00
55217;BME280;41086;46.736;15.666;2023-05-19T08:01:53;56955.81;;;-143.57;100.00
55217;BME280;41086;46.736;15.666;2023-05-19T08:04:20;56955.81;;;-143.57;100.00
55217;BME280;41086;46.736;15.666;2023-05-19T08:06:47;56955.81;;;-143.57;100.00
55217;BME280;41086;46.736;15.666;2023-05-19T08:09:14;56955.81;;;-143.57;100.00
55217;BME280;41086;46.736;15.666;2023-05-19T08:11:40;56955.81;;;-143.57;100.00
55217;BME280;41086;46.736;15.666;2023-05-19T08:14:07;56955.81;;;-143.57;100.00
55217;BME280;41086;46.736;15.666;2023-05-19T08:16:34;56955.81;;;-143.57;100.00
55217;BME280;41086;46.736;15.666;2023-05-19T08:19:01;56955.81;;;-143.57;100.00
55217;BME280;41086;46.736;15.666;2023-05-19T08:21:30;56955.81;;;-143.57;100.00
55217;BME280;41086;46.736;15.666;2023-05-19T08:24:00;56955.81;;;-143.57;100.00
55217;BME280;41086;46.736;15.666;2023-05-19T08:26:27;56955.81;;;-143.57;100.00
55217;BME280;41086;46.736;15.666;2023-05-19T08:28:54;56955.81;;;-143.57;100.00
55217;BME280;41086;46.736;15.666;2023-05-19T08:31:21;56955.81;;;-143.57;100.00
55217;BME280;41086;46.736;15.666;2023-05-19T08:33:48;56955.81;;;-143.57;100.00
55217;BME280;41086;46.736;15.666;2023-05-19T08:36:15;56955.81;;;-143.57;100.00
55217;BME280;41086;46.736;15.666;2023-05-19T08:38:41;56955.81;;;-143.57;100.00
55217;BME280;41086;46.736;15.666;2023-05-19T08:41:09;56955.81;;;-143.57;100.00
55217;BME280;41086;46.736;15.666;2023-05-19T08:43:37;56955.81;;;-143.57;100.00
55217;BME280;41086;46.736;15.666;2023-05-19T08:46:05;56955.81;;;-143.57;100.00
55217;BME280;41086;46.736;15.666;2023-05-19T08:48:34;56955.81;;;-143.57;100.00
55217;BME280;41086;46.736;15.666;2023-05-19T08:51:13;56955.81;;;-143.57;100.00
55217;BME280;41086;46.736;15.666;2023-05-19T08:53:48;56955.81;;;-143.57;100.00
55217;BME280;41086;46.736;15.666;2023-05-19T08:56:21;56955.81;;;-143.57;100.00
55217;BME280;41086;46.736;15.666;2023-05-19T08:58:49;56955.81;;;-143.57;100.00
55217;BME280;41086;46.736;15.666;2023-05-19T09:01:17;56955.81;;;-143.57;100.00
55217;BME280;41086;46.736;15.666;2023-05-19T09:03:46;56955.81;;;-143.57;100.00
55217;BME280;41086;46.736;15.666;2023-05-19T09:06:15;56955.81;;;-143.57;100.00
55217;BME280;41086;46.736;15.666;2023-05-19T09:08:42;56955.81;;;-143.57;100.00
55217;BME280;41086;46.736;15.666;2023-05-19T09:11:10;56955.81;;;-143.57;100.00
55217;BME280;41086;46.736;15.666;2023-05-19T09:13:37;56955.81;;;-143.57;100.00
55217;BME280;41086;46.736;15.666;2023-05-19T09:16:04;56955.81;;;-143.57;100.00
55217;BME280;41086;46.736;15.666;2023-05-19T09:18:32;56955.81;;;-143.57;100.00
55217;BME280;41086;46.736;15.666;2023-05-19T09:21:00;56955.81;;;-143.57;100.00
55217;BME280;41086;46.736;15.666;2023-05-19T09:23:32;56955.81;;;-143.57;100.00
55217;BME280;41086;46.736;15.666;2023-05-19T09:26:03;56955.81;;;-143.57;100.00
55217;BME280;41086;46.736;15.666;2023-05-19T09:28:35;56955.81;;;-143.57;100.00
55217;BME280;41086;46.736;15.666;2023-05-19T09:31:04;56955.81;;;-143.57;100.00
55217;BME280;41086;46.736;15.666;2023-05-19T09:33:33;56955.81;;;-143.57;100.00
55217;BME280;41086;46.736;15.666;2023-05-19T09:36:01;56955.81;;;-143.57;100.00
55217;BME280;41086;46.736;15.666;2023-05-19T09:38:29;56955.81;;;-143.57;100.00
55217;BME280;41086;46.736;15.666;2023-05-19T09:40:57;56955.81;;;-143.57;100.00
55217;BME280;41086;46.736;15.666;2023-05-19T09:43:31;56955.81;;;-143.57;100.00
55217;BME280;41086;46.736;15.666;2023-05-19T09:46:09;56955.81;;;-143.57;100.00
55217;BME280;41086;46.736;15.666;2023-05-19T09:48:40;56955.81;;;-143.57;100.00
55217;BME280;41086;46.736;15.666;2023-05-19T09:51:08;56955.81;;;-143.57;100.00
55217;BME280;41086;46.736;15.666;2023-05-19T09:53:37;56955.81;;;-143.57;100.00
55217;BME280;41086;46.736;15.666;2023-05-19T09:56:07;56955.81;;;-143.57;100.00
55217;BME280;41086;46.736;15.666;2023-05-19T09:58:34;56955.81;;;-143.57;100.00
55217;BME280;41086;46.736;15.666;2023-05-19T10:01:03;56955.81;;;-143.57;100.00
55217;BME280;41086;46.736;15.666;2023-05-19T10:03:30;56955.81;;;-143.57;100.00
55217;BME280;41086;46.736;15.666;2023-05-19T10:06:02;56955.81;;;-143.57;100.00
55217;BME280;41086;46.736;15.666;2023-05-19T10:08:30;56955.81;;;-143.57;100.00
55217;BME280;41086;46.736;15.666;2023-05-19T10:10:58;56955.81;;;-143.57;100.00
55217;BME280;41086;46.736;15.666;2023-05-19T10:13:25;56955.81;;;-143.57;100.00
55217;BME280;41086;46.736;15.666;2023-05-19T10:15:54;56955.81;;;-143.57;100.00
55217;BME280;41086;46.736;15.666;2023-05-19T10:18:26;56955.81;;;-143.57;100.00
55217;BME280;41086;46.736;15.666;2023-05-19T10:20:56;56955.81;;;-143.57;100.00
55217;BME280;41086;46.736;15.666;2023-05-19T10:23:24;56955.81;;;-143.57;100.00
55217;BME280;41086;46.736;15.666;2023-05-19T10:25:55;56955.81;;;-143.57;100.00
55217;BME280;41086;46.736;15.666;2023-05-19T10:28:23;56955.81;;;-143.57;100.00
55217;BME280;41086;46.736;15.666;2023-05-19T10:30:55;56955.81;;;-143.57;100.00
55217;BME280;41086;46.736;15.666;2023-05-19T10:33:46;56955.81;;;-143.57;100.00
55217;BME280;41086;46.736;15.666;2023-05-19T10:36:48;56955.81;;;-143.57;100.00
55217;BME280;41086;46.736;15.666;2023-05-19T10:39:29;56955.81;;;-143.57;100.00
55217;BME280;41086;46.736;15.666;2023-05-19T10:42:25;56955.81;;;-143.57;100.00
55217;BME280;41086;46.736;15.666;2023-05-19T10:45:08;56955.81;;;-143.57;100.00
55217;BME280;41086;46.736;15.666;2023-05-19T10:47:40;56955.81;;;-143.57;100.00
55217;BME280;41086;46.736;15.666;2023-05-19T10:50:07;56955.81;;;-143.57;100.00
55217;BME280;41086;46.736;15.666;2023-05-19T10:52:38;56955.81;;;-143.57;100.00
55217;BME280;41086;46.736;15.666;2023-05-19T10:55:11;56955.81;;;-143.57;100.00
55217;BME280;41086;46.736;15.666;2023-05-19T10:57:52;56955.81;;;-143.57;100.00
55217;BME280;41086;46.736;15.666;2023-05-19T11:00:26;56955.81;;;-143.57;100.00
55217;BME280;41086;46.736;15.666;2023-05-19T11:03:11;56955.81;;;-143.57;100.00
55217;BME280;41086;46.736;15.666;2023-05-19T11:05:39;56955.81;;;-143.57;100.00
55217;BME280;41086;46.736;15.666;2023-05-19T11:08:06;56955.81;;;-143.57;100.00
55217;BME280;41086;46.736;15.666;2023-05-19T11:10:33;56955.81;;;-143.57;100.00
55217;BME280;41086;46.736;15.666;2023-05-19T11:13:00;56955.81;;;-143.57;100.00
55217;BME280;41086;46.736;15.666;2023-05-19T11:15:34;56955.81;;;-143.57;100.00
55217;BME280;41086;46.736;15.666;2023-05-19T11:18:03;56955.81;;;-143.57;100.00
55217;BME280;41086;46.736;15.666;2023-05-19T11:20:30;56955.81;;;-143.57;100.00
55217;BME280;41086;46.736;15.666;2023-05-19T11:23:05;56955.81;;;-143.57;100.00
55217;BME280;41086;46.736;15.666;2023-05-19T11:28:17;56955.81;;;-143.57;100.00
55217;BME280;41086;46.736;15.666;2023-05-19T11:30:47;56955.81;;;-143.57;100.00
55217;BME280;41086;46.736;15.666;2023-05-19T11:33:19;56955.81;;;-143.57;100.00
55217;BME280;41086;46.736;15.666;2023-05-19T11:35:46;56955.81;;;-143.57;100.00
55217;BME280;41086;46.736;15.666;2023-05-19T11:38:16;56955.81;;;-143.57;100.00
55217;BME280;41086;46.736;15.666;2023-05-19T11:40:44;56955.81;;;-143.57;100.00
55217;BME280;41086;46.736;15.666;2023-05-19T11:43:11;56955.81;;;-143.57;100.00
55217;BME280;41086;46.736;15.666;2023-05-19T11:45:37;56955.81;;;-143.57;100.00
55217;BME280;41086;46.736;15.666;2023-05-19T11:48:04;56955.81;;;-143.57;100.00
55217;BME280;41086;46.736;15.666;2023-05-19T11:50:32;56955.81;;;-143.57;100.00
55217;BME280;41086;46.736;15.666;2023-05-19T11:53:00;56955.81;;;-143.57;100.00
55217;BME280;41086;46.736;15.666;2023-05-19T11:55:28;56955.81;;;-143.57;100.00
55217;BME280;41086;46.736;15.666;2023-05-19T11:57:59;56955.81;;;-143.57;100.00
55217;BME280;41086;46.736;15.666;2023-05-19T12:00:34;56955.81;;;-143.57;100.00
55217;BME280;41086;46.736;15.666;2023-05-19T12:03:06;56955.81;;;-143.57;100.00
55217;BME280;41086;46.736;15.666;2023-05-19T12:05:36;56955.81;;;-143.57;100.00
55217;BME280;41086;46.736;15.666;2023-05-19T12:08:09;56955.81;;;-143.57;100.00
55217;BME280;41086;46.736;15.666;2023-05-19T12:10:37;56955.81;;;-143.57;100.00
55217;BME280;41086;46.736;15.666;2023-05-19T12:13:05;56955.81;;;-143.57;100.00
55217;BME280;41086;46.736;15.666;2023-05-19T12:15:36;56955.81;;;-143.57;100.00
55217;BME280;41086;46.736;15.666;2023-05-19T12:18:03;56955.81;;;-143.57;100.00
55217;BME280;41086;46.736;15.666;2023-05-19T12:20:30;56955.81;;;-143.57;100.00
55217;BME280;41086;46.736;15.666;2023-05-19T12:22:59;56955.81;;;-143.57;100.00
55217;BME280;41086;46.736;15.666;2023-05-19T12:25:27;56955.81;;;-143.57;100.00
55217;BME280;41086;46.736;15.666;2023-05-19T12:27:58;56955.81;;;-143.57;100.00
55217;BME280;41086;46.736;15.666;2023-05-19T12:30:26;56955.81;;;-143.57;100.00
55217;BME280;41086;46.736;15.666;2023-05-19T12:32:57;56955.81;;;-143.57;100.00
55217;BME280;41086;46.736;15.666;2023-05-19T12:35:28;56955.81;;;-143.57;100.00
55217;BME280;41086;46.736;15.666;2023-05-19T12:37:55;56955.81;;;-143.57;100.00
55217;BME280;41086;46.736;15.666;2023-05-19T12:40:23;56955.81;;;-143.57;100.00
55217;BME280;41086;46.736;15.666;2023-05-19T12:42:49;56955.81;;;-143.57;100.00
55217;BME280;41086;46.736;15.666;2023-05-19T12:45:20;56955.81;;;-143.57;100.00
55217;BME280;41086;46.736;15.666;2023-05-19T12:47:48;56955.81;;;-143.57;100.00